sensor_id;sensor_type;location;lat;lon;timestamp;P1;durP1;ratioP1;P2;durP2;ratioP2
15112;SDS011;7657;50.140;7.076;2023-03-01T00:00:09;11.40;;;7.37;;
15112;SDS011;7657;50.140;7.076;2023-03-01T00:02:37;16.53;;;7.40;;
15112;SDS011;7657;50.140;7.076;2023-03-01T00:05:04;11.37;;;7.67;;
15112;SDS011;7657;50.140;7.076;2023-03-01T00:07:32;11.40;;;7.23;;
15112;SDS011;7657;50.140;7.076;2023-03-01T00:10:00;10.20;;;7.30;;
15112;SDS011;7657;50.140;7.076;2023-03-01T00:12:27;12.03;;;7.13;;
15112;SDS011;7657;50.140;7.076;2023-03-01T00:14:54;11.50;;;8.00;;
15112;SDS011;7657;50.140;7.076;2023-03-01T00:17:21;10.17;;;6.80;;
15112;SDS011;7657;50.140;7.076;2023-03-01T00:19:48;12.77;;;7.30;;
15112;SDS011;7657;50.140;7.076;2023-03-01T00:22:15;10.80;;;7.40;;
15112;SDS011;7657;50.140;7.076;2023-03-01T00:24:42;11.00;;;7.23;;
15112;SDS011;7657;50.140;7.076;2023-03-01T00:27:10;11.97;;;6.93;;
15112;SDS011;7657;50.140;7.076;2023-03-01T00:29:37;11.33;;;7.73;;
15112;SDS011;7657;50.140;7.076;2023-03-01T00:32:04;11.77;;;7.40;;
15112;SDS011;7657;50.140;7.076;2023-03-01T00:34:31;10.73;;;7.03;;
15112;SDS011;7657;50.140;7.076;2023-03-01T00:36:58;13.63;;;7.50;;
15112;SDS011;7657;50.140;7.076;2023-03-01T00:39:30;10.37;;;7.10;;
15112;SDS011;7657;50.140;7.076;2023-03-01T00:41:58;13.03;;;7.77;;
15112;SDS011;7657;50.140;7.076;2023-03-01T00:44:26;10.80;;;7.03;;
15112;SDS011;7657;50.140;7.076;2023-03-01T00:46:53;16.53;;;8.07;;
15112;SDS011;7657;50.140;7.076;2023-03-01T00:49:20;12.30;;;7.40;;
15112;SDS011;7657;50.140;7.076;2023-03-01T00:51:49;12.00;;;8.10;;
15112;SDS011;7657;50.140;7.076;2023-03-01T00:54:16;12.20;;;8.03;;
15112;SDS011;7657;50.140;7.076;2023-03-01T00:56:43;12.67;;;7.67;;
15112;SDS011;7657;50.140;7.076;2023-03-01T00:59:09;12.57;;;7.63;;
15112;SDS011;7657;50.140;7.076;2023-03-01T01:01:38;12.87;;;7.90;;
15112;SDS011;7657;50.140;7.076;2023-03-01T01:04:05;11.13;;;8.13;;
15112;SDS011;7657;50.140;7.076;2023-03-01T01:06:34;12.73;;;8.03;;
15112;SDS011;7657;50.140;7.076;2023-03-01T01:09:03;12.77;;;7.90;;
15112;SDS011;7657;50.140;7.076;2023-03-01T01:11:32;12.43;;;7.67;;
15112;SDS011;7657;50.140;7.076;2023-03-01T01:14:00;12.93;;;8.50;;
15112;SDS011;7657;50.140;7.076;2023-03-01T01:16:27;12.23;;;8.20;;
15112;SDS011;7657;50.140;7.076;2023-03-01T01:18:56;13.07;;;7.60;;
15112;SDS011;7657;50.140;7.076;2023-03-01T01:21:24;13.10;;;8.70;;
15112;SDS011;7657;50.140;7.076;2023-03-01T01:23:52;12.10;;;7.63;;
15112;SDS011;7657;50.140;7.076;2023-03-01T01:26:20;12.27;;;8.23;;
15112;SDS011;7657;50.140;7.076;2023-03-01T01:28:48;12.10;;;7.77;;
15112;SDS011;7657;50.140;7.076;2023-03-01T01:31:16;14.40;;;8.37;;
15112;SDS011;7657;50.140;7.076;2023-03-01T01:33:44;13.17;;;7.93;;
15112;SDS011;7657;50.140;7.076;2023-03-01T01:36:12;11.03;;;7.53;;
15112;SDS011;7657;50.140;7.076;2023-03-01T01:38:39;13.47;;;8.73;;
15112;SDS011;7657;50.140;7.076;2023-03-01T01:41:07;12.73;;;7.87;;
15112;SDS011;7657;50.140;7.076;2023-03-01T01:43:37;12.20;;;7.57;;
15112;SDS011;7657;50.140;7.076;2023-03-01T01:46:07;11.43;;;7.33;;
15112;SDS011;7657;50.140;7.076;2023-03-01T01:48:43;13.47;;;8.30;;
15112;SDS011;7657;50.140;7.076;2023-03-01T01:51:16;14.77;;;8.30;;
15112;SDS011;7657;50.140;7.076;2023-03-01T01:53:46;13.20;;;7.60;;
15112;SDS011;7657;50.140;7.076;2023-03-01T01:56:16;12.90;;;8.20;;
15112;SDS011;7657;50.140;7.076;2023-03-01T01:58:44;11.57;;;7.47;;
15112;SDS011;7657;50.140;7.076;2023-03-01T02:01:13;13.10;;;7.87;;
15112;SDS011;7657;50.140;7.076;2023-03-01T02:03:40;12.53;;;7.93;;
15112;SDS011;7657;50.140;7.076;2023-03-01T02:06:16;10.90;;;7.63;;
15112;SDS011;7657;50.140;7.076;2023-03-01T02:08:48;12.07;;;8.13;;
15112;SDS011;7657;50.140;7.076;2023-03-01T02:11:18;12.23;;;8.40;;
15112;SDS011;7657;50.140;7.076;2023-03-01T02:13:47;13.17;;;8.50;;
15112;SDS011;7657;50.140;7.076;2023-03-01T02:16:14;14.20;;;8.20;;
15112;SDS011;7657;50.140;7.076;2023-03-01T02:18:41;12.43;;;7.70;;
15112;SDS011;7657;50.140;7.076;2023-03-01T02:21:12;14.13;;;8.37;;
15112;SDS011;7657;50.140;7.076;2023-03-01T02:23:51;10.83;;;7.80;;
15112;SDS011;7657;50.140;7.076;2023-03-01T02:26:23;15.00;;;9.27;;
15112;SDS011;7657;50.140;7.076;2023-03-01T02:28:57;11.00;;;7.83;;
15112;SDS011;7657;50.140;7.076;2023-03-01T02:31:24;12.50;;;8.70;;
15112;SDS011;7657;50.140;7.076;2023-03-01T02:34:10;11.73;;;7.83;;
15112;SDS011;7657;50.140;7.076;2023-03-01T02:36:40;11.77;;;8.03;;
15112;SDS011;7657;50.140;7.076;2023-03-01T02:39:12;13.90;;;9.30;;
15112;SDS011;7657;50.140;7.076;2023-03-01T02:41:44;14.50;;;8.67;;
15112;SDS011;7657;50.140;7.076;2023-03-01T02:44:16;14.40;;;8.70;;
15112;SDS011;7657;50.140;7.076;2023-03-01T02:46:43;16.60;;;8.87;;
15112;SDS011;7657;50.140;7.076;2023-03-01T02:49:16;13.00;;;8.90;;
15112;SDS011;7657;50.140;7.076;2023-03-01T02:51:48;11.83;;;8.30;;
15112;SDS011;7657;50.140;7.076;2023-03-01T02:54:28;14.47;;;8.90;;
15112;SDS011;7657;50.140;7.076;2023-03-01T02:56:59;13.57;;;8.37;;
15112;SDS011;7657;50.140;7.076;2023-03-01T02:59:29;15.83;;;9.00;;
15112;SDS011;7657;50.140;7.076;2023-03-01T03:02:00;11.27;;;7.90;;
15112;SDS011;7657;50.140;7.076;2023-03-01T03:04:27;14.33;;;8.90;;
15112;SDS011;7657;50.140;7.076;2023-03-01T03:06:54;14.63;;;8.43;;
15112;SDS011;7657;50.140;7.076;2023-03-01T03:09:21;14.10;;;9.27;;
15112;SDS011;7657;50.140;7.076;2023-03-01T03:11:48;15.17;;;8.90;;
15112;SDS011;7657;50.140;7.076;2023-03-01T03:14:15;12.90;;;8.30;;
15112;SDS011;7657;50.140;7.076;2023-03-01T03:16:45;13.83;;;8.33;;
15112;SDS011;7657;50.140;7.076;2023-03-01T03:19:15;13.73;;;8.87;;
15112;SDS011;7657;50.140;7.076;2023-03-01T03:21:42;12.73;;;8.67;;
15112;SDS011;7657;50.140;7.076;2023-03-01T03:24:09;13.23;;;8.70;;
15112;SDS011;7657;50.140;7.076;2023-03-01T03:26:36;13.03;;;9.27;;
15112;SDS011;7657;50.140;7.076;2023-03-01T03:29:03;14.20;;;9.20;;
15112;SDS011;7657;50.140;7.076;2023-03-01T03:31:30;13.00;;;8.77;;
15112;SDS011;7657;50.140;7.076;2023-03-01T03:33:58;13.77;;;9.00;;
15112;SDS011;7657;50.140;7.076;2023-03-01T03:36:25;14.00;;;8.80;;
15112;SDS011;7657;50.140;7.076;2023-03-01T03:38:52;15.00;;;9.20;;
15112;SDS011;7657;50.140;7.076;2023-03-01T03:41:19;14.70;;;9.63;;
15112;SDS011;7657;50.140;7.076;2023-03-01T03:43:46;15.87;;;8.83;;
15112;SDS011;7657;50.140;7.076;2023-03-01T03:46:14;16.83;;;9.90;;
15112;SDS011;7657;50.140;7.076;2023-03-01T03:48:42;15.73;;;9.50;;
15112;SDS011;7657;50.140;7.076;2023-03-01T03:51:12;13.50;;;9.40;;
15112;SDS011;7657;50.140;7.076;2023-03-01T03:53:40;14.77;;;9.33;;
15112;SDS011;7657;50.140;7.076;2023-03-01T03:56:07;15.27;;;9.30;;
15112;SDS011;7657;50.140;7.076;2023-03-01T03:58:34;14.30;;;8.97;;
15112;SDS011;7657;50.140;7.076;2023-03-01T04:01:01;15.83;;;8.93;;
15112;SDS011;7657;50.140;7.076;2023-03-01T04:03:29;13.67;;;9.33;;
15112;SDS011;7657;50.140;7.076;2023-03-01T04:05:58;14.07;;;9.57;;
15112;SDS011;7657;50.140;7.076;2023-03-01T04:08:28;14.17;;;9.93;;
15112;SDS011;7657;50.140;7.076;2023-03-01T04:10:57;17.37;;;9.80;;
15112;SDS011;7657;50.140;7.076;2023-03-01T04:13:46;13.87;;;9.47;;
15112;SDS011;7657;50.140;7.076;2023-03-01T04:16:13;13.33;;;9.33;;
15112;SDS011;7657;50.140;7.076;2023-03-01T04:18:40;15.10;;;10.23;;
15112;SDS011;7657;50.140;7.076;2023-03-01T04:21:06;17.33;;;10.60;;
15112;SDS011;7657;50.140;7.076;2023-03-01T04:23:35;15.10;;;9.43;;
15112;SDS011;7657;50.140;7.076;2023-03-01T04:26:01;15.13;;;9.13;;
15112;SDS011;7657;50.140;7.076;2023-03-01T04:28:30;17.47;;;10.03;;
15112;SDS011;7657;50.140;7.076;2023-03-01T04:31:01;18.60;;;9.57;;
15112;SDS011;7657;50.140;7.076;2023-03-01T04:33:37;15.77;;;9.73;;
15112;SDS011;7657;50.140;7.076;2023-03-01T04:36:05;15.77;;;9.77;;
15112;SDS011;7657;50.140;7.076;2023-03-01T04:38:35;18.13;;;9.97;;
15112;SDS011;7657;50.140;7.076;2023-03-01T04:41:03;16.53;;;9.93;;
15112;SDS011;7657;50.140;7.076;2023-03-01T04:43:30;16.97;;;10.33;;
15112;SDS011;7657;50.140;7.076;2023-03-01T04:46:02;17.13;;;10.57;;
15112;SDS011;7657;50.140;7.076;2023-03-01T04:48:31;16.20;;;10.33;;
15112;SDS011;7657;50.140;7.076;2023-03-01T04:50:58;14.63;;;10.13;;
15112;SDS011;7657;50.140;7.076;2023-03-01T04:53:25;15.60;;;10.17;;
15112;SDS011;7657;50.140;7.076;2023-03-01T04:55:55;13.47;;;9.70;;
15112;SDS011;7657;50.140;7.076;2023-03-01T04:58:22;15.47;;;9.87;;
15112;SDS011;7657;50.140;7.076;2023-03-01T05:00:49;14.67;;;9.57;;
15112;SDS011;7657;50.140;7.076;2023-03-01T05:03:16;16.77;;;10.83;;
15112;SDS011;7657;50.140;7.076;2023-03-01T05:05:44;16.00;;;10.43;;
15112;SDS011;7657;50.140;7.076;2023-03-01T05:08:12;15.23;;;10.13;;
15112;SDS011;7657;50.140;7.076;2023-03-01T05:10:43;16.43;;;10.87;;
15112;SDS011;7657;50.140;7.076;2023-03-01T05:13:12;14.77;;;10.30;;
15112;SDS011;7657;50.140;7.076;2023-03-01T05:15:44;17.80;;;10.93;;
15112;SDS011;7657;50.140;7.076;2023-03-01T05:18:11;16.73;;;11.00;;
15112;SDS011;7657;50.140;7.076;2023-03-01T05:20:38;16.90;;;10.50;;
15112;SDS011;7657;50.140;7.076;2023-03-01T05:23:05;16.30;;;11.17;;
15112;SDS011;7657;50.140;7.076;2023-03-01T05:25:32;16.17;;;9.97;;
15112;SDS011;7657;50.140;7.076;2023-03-01T05:28:05;17.03;;;10.20;;
15112;SDS011;7657;50.140;7.076;2023-03-01T05:30:37;16.77;;;10.53;;
15112;SDS011;7657;50.140;7.076;2023-03-01T05:33:05;16.93;;;10.33;;
15112;SDS011;7657;50.140;7.076;2023-03-01T05:35:38;15.73;;;10.50;;
15112;SDS011;7657;50.140;7.076;2023-03-01T05:38:06;17.30;;;11.53;;
15112;SDS011;7657;50.140;7.076;2023-03-01T05:40:33;17.43;;;10.70;;
15112;SDS011;7657;50.140;7.076;2023-03-01T05:43:00;17.53;;;10.70;;
15112;SDS011;7657;50.140;7.076;2023-03-01T05:45:30;16.67;;;10.63;;
15112;SDS011;7657;50.140;7.076;2023-03-01T05:47:59;16.30;;;10.37;;
15112;SDS011;7657;50.140;7.076;2023-03-01T05:50:27;15.80;;;10.30;;
15112;SDS011;7657;50.140;7.076;2023-03-01T05:52:57;17.33;;;10.63;;
15112;SDS011;7657;50.140;7.076;2023-03-01T05:55:25;17.93;;;10.40;;
15112;SDS011;7657;50.140;7.076;2023-03-01T05:57:53;15.63;;;10.23;;
15112;SDS011;7657;50.140;7.076;2023-03-01T06:00:21;15.77;;;10.23;;
15112;SDS011;7657;50.140;7.076;2023-03-01T06:02:48;19.60;;;11.30;;
15112;SDS011;7657;50.140;7.076;2023-03-01T06:05:17;17.67;;;10.60;;
15112;SDS011;7657;50.140;7.076;2023-03-01T06:07:44;15.93;;;10.83;;
15112;SDS011;7657;50.140;7.076;2023-03-01T06:10:11;19.47;;;10.37;;
15112;SDS011;7657;50.140;7.076;2023-03-01T06:12:39;17.57;;;10.57;;
15112;SDS011;7657;50.140;7.076;2023-03-01T06:15:09;18.03;;;11.10;;
15112;SDS011;7657;50.140;7.076;2023-03-01T06:17:37;19.73;;;11.20;;
15112;SDS011;7657;50.140;7.076;2023-03-01T06:20:06;17.83;;;11.40;;
15112;SDS011;7657;50.140;7.076;2023-03-01T06:22:36;18.47;;;10.80;;
15112;SDS011;7657;50.140;7.076;2023-03-01T06:25:04;18.50;;;11.83;;
15112;SDS011;7657;50.140;7.076;2023-03-01T06:27:32;16.97;;;10.67;;
15112;SDS011;7657;50.140;7.076;2023-03-01T06:29:59;18.93;;;10.90;;
15112;SDS011;7657;50.140;7.076;2023-03-01T06:32:26;18.83;;;11.47;;
15112;SDS011;7657;50.140;7.076;2023-03-01T06:34:53;19.07;;;9.87;;
15112;SDS011;7657;50.140;7.076;2023-03-01T06:37:20;16.77;;;10.20;;
15112;SDS011;7657;50.140;7.076;2023-03-01T06:39:48;18.70;;;10.60;;
15112;SDS011;7657;50.140;7.076;2023-03-01T06:42:15;17.37;;;10.23;;
15112;SDS011;7657;50.140;7.076;2023-03-01T06:44:42;16.63;;;10.60;;
15112;SDS011;7657;50.140;7.076;2023-03-01T06:47:10;17.40;;;11.37;;
15112;SDS011;7657;50.140;7.076;2023-03-01T06:49:37;16.27;;;10.60;;
15112;SDS011;7657;50.140;7.076;2023-03-01T06:52:04;15.70;;;10.53;;
15112;SDS011;7657;50.140;7.076;2023-03-01T06:54:31;17.50;;;10.93;;
15112;SDS011;7657;50.140;7.076;2023-03-01T06:56:59;17.40;;;11.20;;
15112;SDS011;7657;50.140;7.076;2023-03-01T06:59:26;19.97;;;11.90;;
15112;SDS011;7657;50.140;7.076;2023-03-01T07:01:53;19.30;;;11.27;;
15112;SDS011;7657;50.140;7.076;2023-03-01T07:04:20;16.50;;;10.63;;
15112;SDS011;7657;50.140;7.076;2023-03-01T07:06:47;16.40;;;10.57;;
15112;SDS011;7657;50.140;7.076;2023-03-01T07:09:20;15.40;;;10.13;;
15112;SDS011;7657;50.140;7.076;2023-03-01T07:11:47;16.37;;;10.10;;
15112;SDS011;7657;50.140;7.076;2023-03-01T07:14:16;19.57;;;10.03;;
15112;SDS011;7657;50.140;7.076;2023-03-01T07:16:44;19.83;;;11.53;;
15112;SDS011;7657;50.140;7.076;2023-03-01T07:19:11;16.20;;;10.73;;
15112;SDS011;7657;50.140;7.076;2023-03-01T07:21:38;17.73;;;10.87;;
15112;SDS011;7657;50.140;7.076;2023-03-01T07:24:05;17.57;;;10.67;;
15112;SDS011;7657;50.140;7.076;2023-03-01T07:26:33;19.83;;;12.40;;
15112;SDS011;7657;50.140;7.076;2023-03-01T07:29:00;16.97;;;10.93;;
15112;SDS011;7657;50.140;7.076;2023-03-01T07:31:29;15.67;;;10.43;;
15112;SDS011;7657;50.140;7.076;2023-03-01T07:33:56;19.20;;;11.13;;
15112;SDS011;7657;50.140;7.076;2023-03-01T07:36:23;18.40;;;10.67;;
15112;SDS011;7657;50.140;7.076;2023-03-01T07:38:50;17.43;;;11.23;;
15112;SDS011;7657;50.140;7.076;2023-03-01T07:41:17;19.00;;;10.67;;
15112;SDS011;7657;50.140;7.076;2023-03-01T07:43:44;17.60;;;11.37;;
15112;SDS011;7657;50.140;7.076;2023-03-01T07:46:11;19.20;;;13.37;;
15112;SDS011;7657;50.140;7.076;2023-03-01T07:48:39;24.23;;;13.73;;
15112;SDS011;7657;50.140;7.076;2023-03-01T07:51:06;20.10;;;12.07;;
15112;SDS011;7657;50.140;7.076;2023-03-01T07:53:34;25.63;;;13.60;;
15112;SDS011;7657;50.140;7.076;2023-03-01T07:56:01;22.70;;;13.10;;
15112;SDS011;7657;50.140;7.076;2023-03-01T07:58:29;15.97;;;11.20;;
15112;SDS011;7657;50.140;7.076;2023-03-01T08:00:57;16.50;;;10.67;;
15112;SDS011;7657;50.140;7.076;2023-03-01T08:03:28;17.43;;;10.57;;
15112;SDS011;7657;50.140;7.076;2023-03-01T08:05:58;17.53;;;11.37;;
15112;SDS011;7657;50.140;7.076;2023-03-01T08:08:25;16.77;;;10.87;;
15112;SDS011;7657;50.140;7.076;2023-03-01T08:10:52;16.90;;;10.90;;
15112;SDS011;7657;50.140;7.076;2023-03-01T08:13:22;17.60;;;11.47;;
15112;SDS011;7657;50.140;7.076;2023-03-01T08:15:49;18.70;;;11.37;;
15112;SDS011;7657;50.140;7.076;2023-03-01T08:18:17;16.60;;;11.23;;
15112;SDS011;7657;50.140;7.076;2023-03-01T08:20:45;17.40;;;11.23;;
15112;SDS011;7657;50.140;7.076;2023-03-01T08:23:13;18.63;;;10.83;;
15112;SDS011;7657;50.140;7.076;2023-03-01T08:25:40;14.90;;;10.50;;
15112;SDS011;7657;50.140;7.076;2023-03-01T08:28:07;17.27;;;10.93;;
15112;SDS011;7657;50.140;7.076;2023-03-01T08:30:34;17.37;;;11.30;;
15112;SDS011;7657;50.140;7.076;2023-03-01T08:33:01;18.37;;;11.40;;
15112;SDS011;7657;50.140;7.076;2023-03-01T08:35:28;20.80;;;12.67;;
15112;SDS011;7657;50.140;7.076;2023-03-01T08:37:55;19.73;;;11.90;;
15112;SDS011;7657;50.140;7.076;2023-03-01T08:40:23;19.70;;;12.30;;
15112;SDS011;7657;50.140;7.076;2023-03-01T08:42:50;17.13;;;10.83;;
15112;SDS011;7657;50.140;7.076;2023-03-01T08:45:17;17.83;;;11.23;;
15112;SDS011;7657;50.140;7.076;2023-03-01T08:47:44;17.97;;;11.17;;
15112;SDS011;7657;50.140;7.076;2023-03-01T08:50:11;18.67;;;11.67;;
15112;SDS011;7657;50.140;7.076;2023-03-01T08:52:38;16.67;;;10.83;;
15112;SDS011;7657;50.140;7.076;2023-03-01T08:55:05;16.17;;;10.77;;
15112;SDS011;7657;50.140;7.076;2023-03-01T08:57:35;18.57;;;11.57;;
15112;SDS011;7657;50.140;7.076;2023-03-01T09:00:02;19.83;;;11.20;;
15112;SDS011;7657;50.140;7.076;2023-03-01T09:02:33;20.00;;;11.17;;
15112;SDS011;7657;50.140;7.076;2023-03-01T09:05:00;17.90;;;11.37;;
15112;SDS011;7657;50.140;7.076;2023-03-01T09:07:27;20.87;;;11.93;;
15112;SDS011;7657;50.140;7.076;2023-03-01T09:09:54;19.00;;;10.83;;
15112;SDS011;7657;50.140;7.076;2023-03-01T09:12:21;21.23;;;12.67;;
15112;SDS011;7657;50.140;7.076;2023-03-01T09:14:51;24.03;;;13.97;;
15112;SDS011;7657;50.140;7.076;2023-03-01T09:17:18;38.60;;;20.80;;
15112;SDS011;7657;50.140;7.076;2023-03-01T09:19:46;24.57;;;14.87;;
15112;SDS011;7657;50.140;7.076;2023-03-01T09:22:13;30.50;;;16.90;;
15112;SDS011;7657;50.140;7.076;2023-03-01T09:24:40;19.23;;;13.13;;
15112;SDS011;7657;50.140;7.076;2023-03-01T09:27:07;19.40;;;12.47;;
15112;SDS011;7657;50.140;7.076;2023-03-01T09:29:34;20.33;;;13.03;;
15112;SDS011;7657;50.140;7.076;2023-03-01T09:32:03;18.43;;;11.90;;
15112;SDS011;7657;50.140;7.076;2023-03-01T09:34:30;18.77;;;11.53;;
15112;SDS011;7657;50.140;7.076;2023-03-01T09:37:17;17.70;;;11.87;;
15112;SDS011;7657;50.140;7.076;2023-03-01T09:39:44;18.53;;;12.20;;
15112;SDS011;7657;50.140;7.076;2023-03-01T09:42:11;17.07;;;11.53;;
15112;SDS011;7657;50.140;7.076;2023-03-01T09:44:40;18.57;;;12.10;;
15112;SDS011;7657;50.140;7.076;2023-03-01T09:47:16;18.33;;;11.47;;
15112;SDS011;7657;50.140;7.076;2023-03-01T09:49:45;20.90;;;13.20;;
15112;SDS011;7657;50.140;7.076;2023-03-01T09:52:21;20.83;;;13.00;;
15112;SDS011;7657;50.140;7.076;2023-03-01T09:54:55;18.83;;;11.57;;
15112;SDS011;7657;50.140;7.076;2023-03-01T09:57:26;20.77;;;13.70;;
15112;SDS011;7657;50.140;7.076;2023-03-01T10:00:08;21.07;;;12.47;;
15112;SDS011;7657;50.140;7.076;2023-03-01T10:02:45;19.23;;;11.77;;
15112;SDS011;7657;50.140;7.076;2023-03-01T10:11:01;101.20;;;32.53;;
15112;SDS011;7657;50.140;7.076;2023-03-01T10:13:31;29.37;;;16.23;;
15112;SDS011;7657;50.140;7.076;2023-03-01T10:16:05;19.70;;;12.63;;
15112;SDS011;7657;50.140;7.076;2023-03-01T10:18:39;18.73;;;12.33;;
15112;SDS011;7657;50.140;7.076;2023-03-01T10:21:11;17.87;;;11.37;;
15112;SDS011;7657;50.140;7.076;2023-03-01T10:23:41;23.63;;;13.87;;
15112;SDS011;7657;50.140;7.076;2023-03-01T10:26:12;20.63;;;11.83;;
15112;SDS011;7657;50.140;7.076;2023-03-01T10:28:52;20.53;;;12.17;;
15112;SDS011;7657;50.140;7.076;2023-03-01T10:31:27;19.10;;;12.73;;
15112;SDS011;7657;50.140;7.076;2023-03-01T10:34:07;19.33;;;12.37;;
15112;SDS011;7657;50.140;7.076;2023-03-01T10:36:37;18.13;;;12.27;;
15112;SDS011;7657;50.140;7.076;2023-03-01T10:39:11;18.33;;;11.37;;
15112;SDS011;7657;50.140;7.076;2023-03-01T10:41:45;18.73;;;11.47;;
15112;SDS011;7657;50.140;7.076;2023-03-01T10:44:36;18.87;;;12.03;;
15112;SDS011;7657;50.140;7.076;2023-03-01T10:47:13;21.07;;;12.20;;
15112;SDS011;7657;50.140;7.076;2023-03-01T10:49:52;17.33;;;11.53;;
15112;SDS011;7657;50.140;7.076;2023-03-01T10:52:22;20.00;;;11.70;;
15112;SDS011;7657;50.140;7.076;2023-03-01T10:54:51;16.97;;;11.13;;
15112;SDS011;7657;50.140;7.076;2023-03-01T10:57:31;17.87;;;11.50;;
15112;SDS011;7657;50.140;7.076;2023-03-01T11:02:49;17.77;;;11.73;;
15112;SDS011;7657;50.140;7.076;2023-03-01T11:05:28;18.27;;;12.03;;
15112;SDS011;7657;50.140;7.076;2023-03-01T11:07:59;18.20;;;11.83;;
15112;SDS011;7657;50.140;7.076;2023-03-01T11:10:28;28.83;;;16.03;;
15112;SDS011;7657;50.140;7.076;2023-03-01T11:13:05;20.63;;;12.17;;
15112;SDS011;7657;50.140;7.076;2023-03-01T11:15:33;17.00;;;11.23;;
15112;SDS011;7657;50.140;7.076;2023-03-01T11:18:01;16.97;;;11.37;;
15112;SDS011;7657;50.140;7.076;2023-03-01T11:20:31;18.67;;;12.40;;
15112;SDS011;7657;50.140;7.076;2023-03-01T11:23:01;18.20;;;12.03;;
15112;SDS011;7657;50.140;7.076;2023-03-01T11:25:32;20.73;;;13.07;;
15112;SDS011;7657;50.140;7.076;2023-03-01T11:28:03;19.20;;;11.67;;
15112;SDS011;7657;50.140;7.076;2023-03-01T11:30:34;19.93;;;13.13;;
15112;SDS011;7657;50.140;7.076;2023-03-01T11:33:11;20.87;;;14.03;;
15112;SDS011;7657;50.140;7.076;2023-03-01T11:35:46;19.10;;;12.60;;
15112;SDS011;7657;50.140;7.076;2023-03-01T11:38:18;19.47;;;12.80;;
15112;SDS011;7657;50.140;7.076;2023-03-01T11:40:50;16.93;;;11.37;;
15112;SDS011;7657;50.140;7.076;2023-03-01T11:43:26;17.03;;;12.20;;
15112;SDS011;7657;50.140;7.076;2023-03-01T11:46:06;19.57;;;12.67;;
15112;SDS011;7657;50.140;7.076;2023-03-01T11:48:55;19.73;;;13.87;;
15112;SDS011;7657;50.140;7.076;2023-03-01T11:51:37;20.17;;;13.27;;
15112;SDS011;7657;50.140;7.076;2023-03-01T11:54:13;19.70;;;12.60;;
15112;SDS011;7657;50.140;7.076;2023-03-01T11:56:52;19.50;;;12.83;;
15112;SDS011;7657;50.140;7.076;2023-03-01T11:59:29;21.50;;;14.33;;
15112;SDS011;7657;50.140;7.076;2023-03-01T12:02:18;22.07;;;13.07;;
15112;SDS011;7657;50.140;7.076;2023-03-01T12:08:13;19.53;;;12.57;;
15112;SDS011;7657;50.140;7.076;2023-03-01T12:10:47;18.57;;;13.30;;
15112;SDS011;7657;50.140;7.076;2023-03-01T12:13:30;20.53;;;14.10;;
15112;SDS011;7657;50.140;7.076;2023-03-01T12:16:15;21.30;;;14.57;;
15112;SDS011;7657;50.140;7.076;2023-03-01T12:18:59;22.10;;;13.60;;
15112;SDS011;7657;50.140;7.076;2023-03-01T12:21:48;22.17;;;14.13;;
15112;SDS011;7657;50.140;7.076;2023-03-01T12:27:25;19.73;;;14.03;;
15112;SDS011;7657;50.140;7.076;2023-03-01T12:30:15;21.67;;;13.20;;
15112;SDS011;7657;50.140;7.076;2023-03-01T12:32:52;20.13;;;14.03;;
15112;SDS011;7657;50.140;7.076;2023-03-01T12:35:35;19.47;;;12.40;;
15112;SDS011;7657;50.140;7.076;2023-03-01T12:38:15;25.93;;;17.13;;
15112;SDS011;7657;50.140;7.076;2023-03-01T12:41:04;18.93;;;12.53;;
15112;SDS011;7657;50.140;7.076;2023-03-01T12:43:51;20.77;;;13.27;;
15112;SDS011;7657;50.140;7.076;2023-03-01T12:46:30;21.37;;;13.60;;
15112;SDS011;7657;50.140;7.076;2023-03-01T12:49:08;20.63;;;13.67;;
15112;SDS011;7657;50.140;7.076;2023-03-01T12:51:39;18.03;;;12.40;;
15112;SDS011;7657;50.140;7.076;2023-03-01T12:54:11;16.93;;;12.10;;
15112;SDS011;7657;50.140;7.076;2023-03-01T12:56:43;20.27;;;13.50;;
15112;SDS011;7657;50.140;7.076;2023-03-01T12:59:18;23.23;;;14.47;;
15112;SDS011;7657;50.140;7.076;2023-03-01T13:01:49;17.60;;;12.10;;
15112;SDS011;7657;50.140;7.076;2023-03-01T13:04:35;16.63;;;11.60;;
15112;SDS011;7657;50.140;7.076;2023-03-01T13:07:20;17.57;;;12.30;;
15112;SDS011;7657;50.140;7.076;2023-03-01T13:09:55;17.63;;;12.00;;
15112;SDS011;7657;50.140;7.076;2023-03-01T13:12:43;17.83;;;11.73;;
15112;SDS011;7657;50.140;7.076;2023-03-01T13:15:24;19.37;;;13.17;;
15112;SDS011;7657;50.140;7.076;2023-03-01T13:17:53;18.13;;;11.53;;
15112;SDS011;7657;50.140;7.076;2023-03-01T13:20:22;15.77;;;10.33;;
15112;SDS011;7657;50.140;7.076;2023-03-01T13:23:00;16.53;;;11.37;;
15112;SDS011;7657;50.140;7.076;2023-03-01T13:25:30;17.77;;;11.13;;
15112;SDS011;7657;50.140;7.076;2023-03-01T13:31:03;14.67;;;10.30;;
15112;SDS011;7657;50.140;7.076;2023-03-01T13:33:38;16.83;;;11.63;;
15112;SDS011;7657;50.140;7.076;2023-03-01T13:36:07;14.53;;;10.13;;
15112;SDS011;7657;50.140;7.076;2023-03-01T13:38:39;16.70;;;10.40;;
15112;SDS011;7657;50.140;7.076;2023-03-01T13:41:12;14.97;;;10.63;;
15112;SDS011;7657;50.140;7.076;2023-03-01T13:43:40;15.43;;;10.20;;
15112;SDS011;7657;50.140;7.076;2023-03-01T13:46:11;17.80;;;11.10;;
15112;SDS011;7657;50.140;7.076;2023-03-01T13:48:43;13.13;;;10.13;;
15112;SDS011;7657;50.140;7.076;2023-03-01T13:51:11;16.80;;;11.10;;
15112;SDS011;7657;50.140;7.076;2023-03-01T13:53:41;15.20;;;10.07;;
15112;SDS011;7657;50.140;7.076;2023-03-01T13:56:11;18.17;;;10.23;;
15112;SDS011;7657;50.140;7.076;2023-03-01T13:58:44;14.43;;;9.73;;
15112;SDS011;7657;50.140;7.076;2023-03-01T14:01:22;16.50;;;10.10;;
15112;SDS011;7657;50.140;7.076;2023-03-01T14:03:51;14.07;;;9.63;;
15112;SDS011;7657;50.140;7.076;2023-03-01T14:06:20;13.03;;;9.03;;
15112;SDS011;7657;50.140;7.076;2023-03-01T14:08:49;15.97;;;10.20;;
15112;SDS011;7657;50.140;7.076;2023-03-01T14:14:34;17.83;;;10.50;;
15112;SDS011;7657;50.140;7.076;2023-03-01T14:17:15;12.67;;;8.47;;
15112;SDS011;7657;50.140;7.076;2023-03-01T14:20:07;13.97;;;9.23;;
15112;SDS011;7657;50.140;7.076;2023-03-01T14:22:38;19.77;;;10.57;;
15112;SDS011;7657;50.140;7.076;2023-03-01T14:25:16;29.27;;;13.50;;
15112;SDS011;7657;50.140;7.076;2023-03-01T14:27:50;17.50;;;9.97;;
15112;SDS011;7657;50.140;7.076;2023-03-01T14:30:21;13.93;;;8.80;;
15112;SDS011;7657;50.140;7.076;2023-03-01T14:32:56;13.73;;;8.60;;
15112;SDS011;7657;50.140;7.076;2023-03-01T14:35:25;11.40;;;7.97;;
15112;SDS011;7657;50.140;7.076;2023-03-01T14:37:53;12.97;;;8.20;;
15112;SDS011;7657;50.140;7.076;2023-03-01T14:40:21;11.57;;;7.70;;
15112;SDS011;7657;50.140;7.076;2023-03-01T14:42:51;11.13;;;7.60;;
15112;SDS011;7657;50.140;7.076;2023-03-01T14:45:19;11.27;;;7.67;;
15112;SDS011;7657;50.140;7.076;2023-03-01T14:47:47;12.03;;;8.53;;
15112;SDS011;7657;50.140;7.076;2023-03-01T14:50:18;10.63;;;7.63;;
15112;SDS011;7657;50.140;7.076;2023-03-01T14:52:50;11.47;;;8.10;;
15112;SDS011;7657;50.140;7.076;2023-03-01T14:55:19;11.80;;;8.13;;
15112;SDS011;7657;50.140;7.076;2023-03-01T14:57:48;13.17;;;7.83;;
15112;SDS011;7657;50.140;7.076;2023-03-01T15:00:17;11.10;;;8.40;;
15112;SDS011;7657;50.140;7.076;2023-03-01T15:02:46;10.63;;;8.00;;
15112;SDS011;7657;50.140;7.076;2023-03-01T15:05:14;12.27;;;7.97;;
15112;SDS011;7657;50.140;7.076;2023-03-01T15:07:44;10.30;;;7.57;;
15112;SDS011;7657;50.140;7.076;2023-03-01T15:10:16;13.73;;;9.20;;
15112;SDS011;7657;50.140;7.076;2023-03-01T15:12:46;12.50;;;7.83;;
15112;SDS011;7657;50.140;7.076;2023-03-01T15:18:14;15.23;;;7.70;;
15112;SDS011;7657;50.140;7.076;2023-03-01T15:20:45;11.70;;;7.73;;
15112;SDS011;7657;50.140;7.076;2023-03-01T15:23:18;13.47;;;8.23;;